createdAt,value
2018-03-16T00:01:04.583Z,9.10
2018-03-16T00:03:31.925Z,9.20
2018-03-16T00:05:58.969Z,9.10
2018-03-16T00:08:26.987Z,9.20
2018-03-16T00:10:54.033Z,8.90
2018-03-16T00:13:21.068Z,8.70
2018-03-16T00:15:48.180Z,8.60
2018-03-16T00:18:16.150Z,8.30
2018-03-16T00:20:43.178Z,8.10
2018-03-16T00:23:10.237Z,8.20
2018-03-16T00:25:37.323Z,8.20
2018-03-16T00:28:04.348Z,8.20
2018-03-16T00:30:31.554Z,8.00
2018-03-16T00:32:58.478Z,7.90
2018-03-16T00:35:25.490Z,7.90
2018-03-16T00:37:52.574Z,7.90
2018-03-16T00:40:19.597Z,7.90
2018-03-16T00:45:17.822Z,8.00
2018-03-16T00:47:44.847Z,8.10
2018-03-16T00:50:11.880Z,8.10
2018-03-16T00:52:38.962Z,8.10
2018-03-16T00:55:06.080Z,8.20
2018-03-16T01:00:12.587Z,8.10
2018-03-16T01:02:40.577Z,8.20
2018-03-16T01:05:07.587Z,8.20
2018-03-16T01:07:34.678Z,8.20
2018-03-16T01:12:28.802Z,8.30
2018-03-16T01:14:55.881Z,8.20
2018-03-16T01:17:23.859Z,8.00
2018-03-16T01:19:50.899Z,8.00
2018-03-16T01:22:17.997Z,7.90
2018-03-16T01:24:45.017Z,8.00
2018-03-16T01:29:39.210Z,8.00
2018-03-16T01:32:08.504Z,8.00
2018-03-16T01:34:36.359Z,7.90
2018-03-16T01:37:03.429Z,7.80
2018-03-16T01:39:30.510Z,7.70
2018-03-16T01:41:59.406Z,7.80
2018-03-16T01:44:25.396Z,7.80
2018-03-16T01:46:52.416Z,7.60
2018-03-16T01:51:46.614Z,7.60
2018-03-16T01:54:13.632Z,7.50
2018-03-16T01:56:40.654Z,7.50
2018-03-16T01:59:07.719Z,7.30
2018-03-16T02:01:34.749Z,7.20
2018-03-16T02:04:01.764Z,7.30
2018-03-16T02:06:28.823Z,7.40
2018-03-16T02:08:55.839Z,7.30
2018-03-16T02:13:50.043Z,7.10
2018-03-16T02:16:17.057Z,7.10
2018-03-16T02:18:44.070Z,7.10
2018-03-16T02:21:11.149Z,7.00
2018-03-16T02:26:16.678Z,7.10
2018-03-16T02:28:44.533Z,7.20
2018-03-16T02:31:11.542Z,7.10
2018-03-16T02:36:05.732Z,7.00
2018-03-16T02:38:32.754Z,7.00
2018-03-16T02:40:59.821Z,6.70
2018-03-16T02:45:53.938Z,6.70
2018-03-16T02:48:21.022Z,6.70
2018-03-16T02:50:48.042Z,6.40
2018-03-16T02:53:15.071Z,6.40
2018-03-16T02:55:42.123Z,6.60
2018-03-16T02:58:09.146Z,6.60
2018-03-16T03:00:36.160Z,6.50
2018-03-16T03:03:03.240Z,6.40
2018-03-16T03:07:57.370Z,6.50
2018-03-16T03:10:24.450Z,6.30
2018-03-16T03:12:51.463Z,6.40
2018-03-16T03:15:19.408Z,6.40
2018-03-16T03:17:46.479Z,6.30
2018-03-16T03:20:13.504Z,6.50
2018-03-16T03:25:20.464Z,6.50
2018-03-16T03:27:47.477Z,6.60
2018-03-16T03:30:14.511Z,6.60
2018-03-16T03:32:41.583Z,6.70
2018-03-16T03:35:09.794Z,6.60
2018-03-16T03:37:37.641Z,6.50
2018-03-16T03:40:04.686Z,6.60
2018-03-16T03:42:32.546Z,6.60
2018-03-16T03:44:59.571Z,6.60
2018-03-16T03:47:26.664Z,6.70
2018-03-16T03:52:21.249Z,6.90
2018-03-16T03:54:48.320Z,6.90
2018-03-16T03:57:15.348Z,6.80
2018-03-16T03:59:42.360Z,6.70
2018-03-16T04:02:09.406Z,6.50
2018-03-16T04:04:37.261Z,6.20
2018-03-16T04:07:04.543Z,6.30
2018-03-16T04:09:31.853Z,6.40
2018-03-16T04:11:58.869Z,6.30
2018-03-16T04:14:25.904Z,6.40
2018-03-16T04:19:21.002Z,6.50
2018-03-16T04:21:48.029Z,6.60
2018-03-16T04:24:15.099Z,6.50
2018-03-16T04:26:42.119Z,6.20
2018-03-16T04:29:09.135Z,6.10
2018-03-16T04:31:37.122Z,6.20
2018-03-16T04:34:04.157Z,6.20
2018-03-16T04:36:31.199Z,6.20
2018-03-16T04:41:30.331Z,6.30
2018-03-16T04:43:57.344Z,6.40
2018-03-16T04:46:24.377Z,6.40
2018-03-16T04:48:51.452Z,6.40
2018-03-16T04:51:18.463Z,6.40
2018-03-16T04:56:25.115Z,6.40
2018-03-16T04:58:51.970Z,6.40
2018-03-16T05:01:18.981Z,6.50
2018-03-16T05:03:46.484Z,6.20
2018-03-16T05:06:14.280Z,6.30
2018-03-16T05:08:41.316Z,6.20
2018-03-16T05:11:08.374Z,6.30
2018-03-16T05:13:35.395Z,6.40
2018-03-16T05:16:02.408Z,6.30
2018-03-16T05:18:29.492Z,6.20
2018-03-16T05:20:57.485Z,6.20
2018-03-16T05:23:24.464Z,6.00
2018-03-16T05:25:51.509Z,6.20
2018-03-16T05:28:18.530Z,6.20
2018-03-16T05:30:45.550Z,6.20
2018-03-16T05:33:13.344Z,6.30
2018-03-16T05:35:40.365Z,6.10
2018-03-16T05:38:07.396Z,6.10
2018-03-16T05:40:34.457Z,6.10
2018-03-16T05:43:01.474Z,6.10
2018-03-16T05:45:28.495Z,6.00
2018-03-16T05:47:55.589Z,6.10
2018-03-16T05:50:22.612Z,6.10
2018-03-16T05:52:49.651Z,6.00
2018-03-16T05:55:17.685Z,5.90
2018-03-16T05:57:44.892Z,5.70
2018-03-16T06:02:39.061Z,5.80
2018-03-16T06:05:06.928Z,5.60
2018-03-16T06:07:33.954Z,5.70
2018-03-16T06:10:01.979Z,5.80
2018-03-16T06:12:28.994Z,5.70
2018-03-16T06:17:24.939Z,5.90
2018-03-16T06:22:33.550Z,5.70
2018-03-16T06:25:00.567Z,5.60
2018-03-16T06:27:27.604Z,5.70
2018-03-16T06:29:54.674Z,5.90
2018-03-16T06:32:21.723Z,5.90
2018-03-16T06:34:49.682Z,5.70
2018-03-16T06:37:19.888Z,5.80
2018-03-16T06:39:46.926Z,6.00
2018-03-16T06:42:13.932Z,5.90
2018-03-16T06:44:41.889Z,5.90
2018-03-16T06:47:09.687Z,5.90
2018-03-16T06:49:36.705Z,6.00
2018-03-16T06:52:03.784Z,6.00
2018-03-16T06:54:30.805Z,5.90
2018-03-16T06:59:25.969Z,6.00
2018-03-16T07:01:52.984Z,6.10
2018-03-16T07:04:20.863Z,6.10
2018-03-16T07:06:47.902Z,6.20
2018-03-16T07:09:14.935Z,6.30
2018-03-16T07:11:41.952Z,6.20
2018-03-16T07:14:09.024Z,6.00
2018-03-16T07:16:37.001Z,6.00
2018-03-16T07:19:04.023Z,5.90
2018-03-16T07:21:31.079Z,6.10
2018-03-16T07:23:58.094Z,6.10
2018-03-16T07:26:25.110Z,6.10
2018-03-16T07:28:52.183Z,6.10
2018-03-16T07:31:19.210Z,5.90
2018-03-16T07:33:46.230Z,6.10
2018-03-16T07:36:13.277Z,6.10
2018-03-16T07:38:40.299Z,6.20
2018-03-16T07:41:08.293Z,6.30
2018-03-16T07:43:35.350Z,6.30
2018-03-16T07:48:42.912Z,6.00
2018-03-16T07:51:10.893Z,6.40
2018-03-16T07:53:37.913Z,6.70
2018-03-16T07:56:04.976Z,7.00
2018-03-16T07:58:31.990Z,7.20
2018-03-16T08:00:59.016Z,7.30
2018-03-16T08:03:27.454Z,7.40
2018-03-16T08:05:54.494Z,7.60
2018-03-16T08:08:21.507Z,7.70
2018-03-16T08:10:48.598Z,7.70
2018-03-16T08:13:15.602Z,7.80
2018-03-16T08:15:42.621Z,7.80
2018-03-16T08:18:09.666Z,8.00
2018-03-16T08:20:36.712Z,8.20
2018-03-16T08:23:03.740Z,8.10
2018-03-16T08:25:30.827Z,8.80
2018-03-16T08:27:57.844Z,9.40
2018-03-16T08:30:24.866Z,10.00
2018-03-16T08:32:51.938Z,10.30
2018-03-16T08:35:18.989Z,9.50
2018-03-16T08:37:46.006Z,9.70
2018-03-16T08:40:13.063Z,9.70
2018-03-16T08:42:40.071Z,9.90
2018-03-16T08:45:08.044Z,9.70
2018-03-16T08:47:38.364Z,10.30
2018-03-16T08:52:32.495Z,10.30
2018-03-16T08:54:59.568Z,9.40
2018-03-16T08:57:26.601Z,9.90
2018-03-16T08:59:53.608Z,9.60
2018-03-16T09:02:20.658Z,9.80
2018-03-16T09:04:49.124Z,9.90
2018-03-16T09:07:16.141Z,9.80
2018-03-16T09:09:43.219Z,9.80
2018-03-16T09:14:48.762Z,12.10
2018-03-16T09:17:15.785Z,10.60
2018-03-16T09:19:42.816Z,10.80
2018-03-16T09:22:09.894Z,11.50
2018-03-16T09:24:36.908Z,11.80
2018-03-16T09:27:03.954Z,11.00
2018-03-16T09:29:31.842Z,10.20
2018-03-16T09:31:58.858Z,10.70
2018-03-16T09:34:25.877Z,10.70
2018-03-16T09:36:52.971Z,10.80
2018-03-16T09:39:20.056Z,10.90
2018-03-16T09:41:47.081Z,11.70
2018-03-16T09:44:14.190Z,12.10
2018-03-16T09:46:41.196Z,11.80
2018-03-16T09:49:08.219Z,12.40
2018-03-16T09:51:35.285Z,11.60
2018-03-16T09:56:29.537Z,11.00
2018-03-16T09:58:56.634Z,11.80
2018-03-16T10:01:23.665Z,12.40
2018-03-16T10:03:50.707Z,12.00
2018-03-16T10:06:17.801Z,12.80
2018-03-16T10:08:44.824Z,12.20
2018-03-16T10:11:12.806Z,13.20
2018-03-16T10:13:39.866Z,14.00
2018-03-16T10:16:06.901Z,13.10
2018-03-16T10:18:33.948Z,13.00
2018-03-16T10:21:01.018Z,13.50
2018-03-16T10:23:28.074Z,12.70
2018-03-16T10:25:55.111Z,12.70
2018-03-16T10:28:22.993Z,13.00
2018-03-16T10:30:50.846Z,13.60
2018-03-16T10:33:17.886Z,14.30
2018-03-16T10:38:24.255Z,13.50
2018-03-16T10:40:51.960Z,13.50
2018-03-16T10:43:18.991Z,13.90
2018-03-16T10:45:46.015Z,13.50
2018-03-16T10:48:13.107Z,13.50
2018-03-16T10:50:40.145Z,14.00
2018-03-16T10:53:07.182Z,13.90
2018-03-16T10:55:35.206Z,13.40
2018-03-16T10:58:02.251Z,13.50
2018-03-16T11:00:30.247Z,13.00
2018-03-16T11:02:57.331Z,13.90
2018-03-16T11:05:24.358Z,15.10
2018-03-16T11:07:51.390Z,15.10
2018-03-16T11:10:18.483Z,14.80
2018-03-16T11:15:13.499Z,14.90
2018-03-16T11:17:40.585Z,15.20
2018-03-16T11:20:07.613Z,15.10
2018-03-16T11:22:34.653Z,15.40
2018-03-16T11:25:01.753Z,14.60
2018-03-16T11:27:28.768Z,14.70
2018-03-16T11:29:55.811Z,14.20
2018-03-16T11:32:22.903Z,14.10
2018-03-16T11:34:50.746Z,14.20
2018-03-16T11:37:18.707Z,14.70
2018-03-16T11:39:46.607Z,14.60
2018-03-16T11:42:13.634Z,14.60
2018-03-16T11:44:40.650Z,13.90
2018-03-16T11:47:07.735Z,14.50
2018-03-16T11:49:34.766Z,14.20
2018-03-16T11:52:01.787Z,14.40
2018-03-16T11:54:28.860Z,14.80
2018-03-16T11:56:55.891Z,13.80
2018-03-16T12:02:01.457Z,14.20
2018-03-16T12:04:28.494Z,14.60
2018-03-16T12:06:55.503Z,14.10
2018-03-16T12:09:23.402Z,13.90
2018-03-16T12:11:50.425Z,13.60
2018-03-16T12:14:18.321Z,13.60
2018-03-16T12:16:45.399Z,13.60
2018-03-16T12:19:12.424Z,14.00
2018-03-16T12:21:39.498Z,14.30
2018-03-16T12:24:07.482Z,13.60
2018-03-16T12:26:34.606Z,13.70
2018-03-16T12:29:01.641Z,13.50
2018-03-16T12:31:28.723Z,14.00
2018-03-16T12:33:55.766Z,13.80
2018-03-16T12:36:22.783Z,13.90
2018-03-16T12:38:49.871Z,14.30
2018-03-16T12:41:16.888Z,14.50
2018-03-16T12:43:43.909Z,14.30
2018-03-16T12:46:10.986Z,14.20
2018-03-16T12:48:38.005Z,14.20
2018-03-16T12:51:05.027Z,14.00
2018-03-16T12:53:32.109Z,13.40
2018-03-16T12:55:59.124Z,13.70
2018-03-16T12:58:26.137Z,13.80
2018-03-16T13:00:53.214Z,13.80
2018-03-16T13:03:20.248Z,14.00
2018-03-16T13:05:47.268Z,14.00
2018-03-16T13:08:14.342Z,14.00
2018-03-16T13:10:42.199Z,14.40
2018-03-16T13:13:09.253Z,14.70
2018-03-16T13:15:36.340Z,14.90
2018-03-16T13:18:03.356Z,14.60
2018-03-16T13:20:31.198Z,14.40
2018-03-16T13:25:38.766Z,14.40
2018-03-16T13:28:05.846Z,14.60
2018-03-16T13:30:33.690Z,14.80
2018-03-16T13:33:00.762Z,14.40
2018-03-16T13:35:27.789Z,14.30
2018-03-16T13:37:54.818Z,14.60
2018-03-16T13:40:21.844Z,14.30
2018-03-16T13:42:49.900Z,14.60
2018-03-16T13:45:17.896Z,14.90
2018-03-16T13:47:45.772Z,14.80
2018-03-16T13:50:12.859Z,15.00
2018-03-16T13:52:39.898Z,14.30
2018-03-16T13:55:06.913Z,14.00
2018-03-16T14:00:01.977Z,14.00
2018-03-16T14:02:29.042Z,14.00
2018-03-16T14:04:56.078Z,14.00
2018-03-16T14:07:24.944Z,14.30
2018-03-16T14:09:51.984Z,14.50
2018-03-16T14:12:19.059Z,14.60
2018-03-16T14:14:47.075Z,14.60
2018-03-16T14:17:15.173Z,14.50
2018-03-16T14:19:42.328Z,14.60
2018-03-16T14:22:09.349Z,14.80
2018-03-16T14:24:37.831Z,14.90
2018-03-16T14:27:04.879Z,15.10
2018-03-16T14:29:31.902Z,15.40
2018-03-16T14:31:58.938Z,15.40
2018-03-16T14:34:26.023Z,15.60
2018-03-16T14:36:53.086Z,15.60
2018-03-16T14:39:20.132Z,15.30
2018-03-16T14:41:47.942Z,15.40
2018-03-16T14:44:14.969Z,15.10
2018-03-16T14:46:41.988Z,15.20
2018-03-16T14:49:09.066Z,15.40
2018-03-16T14:54:14.623Z,14.70
2018-03-16T14:56:41.649Z,15.00
2018-03-16T14:59:08.666Z,15.00
2018-03-16T15:01:35.749Z,15.10
2018-03-16T15:04:02.796Z,14.90
2018-03-16T15:06:30.603Z,14.70
2018-03-16T15:08:57.672Z,14.90
2018-03-16T15:11:24.702Z,14.90
2018-03-16T15:13:52.453Z,14.80
2018-03-16T15:16:19.532Z,15.00
2018-03-16T15:18:46.556Z,15.00
2018-03-16T15:21:13.575Z,15.00
2018-03-16T15:23:40.647Z,15.20
2018-03-16T15:26:07.671Z,15.10
2018-03-16T15:28:34.694Z,14.70
2018-03-16T15:31:01.771Z,14.90
2018-03-16T15:33:29.628Z,15.00
2018-03-16T15:35:56.653Z,15.20
2018-03-16T15:38:23.725Z,15.20
2018-03-16T15:40:50.744Z,15.10
2018-03-16T15:43:18.820Z,15.20
2018-03-16T15:45:45.906Z,15.20
2018-03-16T15:48:13.862Z,15.20
2018-03-16T15:53:08.076Z,15.20
2018-03-16T15:55:35.108Z,15.20
2018-03-16T15:58:02.138Z,15.00
2018-03-16T16:00:29.260Z,15.10
2018-03-16T16:02:56.251Z,15.10
2018-03-16T16:05:23.275Z,15.10
2018-03-16T16:07:50.339Z,15.20
2018-03-16T16:10:17.362Z,15.30
2018-03-16T16:12:44.376Z,15.20
2018-03-16T16:15:11.519Z,15.20
2018-03-16T16:17:39.199Z,15.20
2018-03-16T16:22:44.763Z,15.00
2018-03-16T16:25:11.781Z,15.20
2018-03-16T16:27:38.799Z,15.00
2018-03-16T16:30:05.904Z,14.90
2018-03-16T16:32:32.921Z,14.80
2018-03-16T16:34:59.959Z,14.70
2018-03-16T16:37:27.065Z,14.50
2018-03-16T16:39:54.084Z,14.50
2018-03-16T16:42:21.099Z,14.50
2018-03-16T16:44:48.183Z,14.50
2018-03-16T16:47:15.200Z,14.20
2018-03-16T16:49:43.190Z,13.90
2018-03-16T16:52:10.265Z,13.60
2018-03-16T16:54:38.224Z,12.80
2018-03-16T16:57:05.251Z,12.60
2018-03-16T16:59:33.253Z,12.50
2018-03-16T17:02:00.277Z,12.40
2018-03-16T17:04:27.300Z,11.90
2018-03-16T17:06:54.369Z,11.70
2018-03-16T17:09:21.380Z,11.60
2018-03-16T17:11:48.413Z,11.50
2018-03-16T17:14:15.479Z,11.50
2018-03-16T17:16:42.562Z,11.40
2018-03-16T17:19:09.545Z,11.40
2018-03-16T17:21:36.612Z,11.50
2018-03-16T17:24:03.958Z,11.30
2018-03-16T17:26:31.012Z,11.30
2018-03-16T17:28:58.095Z,11.20
2018-03-16T17:31:25.116Z,11.30
2018-03-16T17:33:52.138Z,11.00
2018-03-16T17:36:19.210Z,12.40
2018-03-16T17:38:47.470Z,11.10
2018-03-16T17:48:49.065Z,10.80
2018-03-16T17:51:16.480Z,10.70
2018-03-16T17:53:43.341Z,10.70
2018-03-16T17:56:10.380Z,10.50
2018-03-16T17:58:37.468Z,10.50
2018-03-16T18:01:04.869Z,10.50
2018-03-16T18:03:32.513Z,10.60
2018-03-16T18:05:59.393Z,10.60
2018-03-16T18:08:26.411Z,10.60
2018-03-16T18:10:53.459Z,10.60
2018-03-16T18:13:20.524Z,10.60
2018-03-16T18:15:47.544Z,10.50
2018-03-16T18:18:14.587Z,10.50
2018-03-16T18:20:41.642Z,10.60
2018-03-16T18:25:35.782Z,10.80
2018-03-16T18:28:02.861Z,10.80
2018-03-16T18:30:29.886Z,10.70
2018-03-16T18:32:58.090Z,10.60
2018-03-16T18:37:53.062Z,10.30
2018-03-16T18:40:20.910Z,10.40
2018-03-16T18:42:48.941Z,10.30
2018-03-16T18:45:15.654Z,10.40
2018-03-16T18:47:43.079Z,10.50
2018-03-16T18:50:10.156Z,10.50
2018-03-16T18:52:37.184Z,10.60
2018-03-16T18:55:04.198Z,10.70
2018-03-16T18:57:31.269Z,10.60
2018-03-16T18:59:58.288Z,10.70
2018-03-16T19:02:25.303Z,10.60
2018-03-16T19:07:30.902Z,10.60
2018-03-16T19:09:57.984Z,10.60
2018-03-16T19:12:25.905Z,10.70
2018-03-16T19:17:20.163Z,10.50
2018-03-16T19:19:47.383Z,10.50
2018-03-16T19:22:14.255Z,10.40
2018-03-16T19:24:41.350Z,10.20
2018-03-16T19:27:08.382Z,10.10
2018-03-16T19:29:35.421Z,10.10
2018-03-16T19:32:02.502Z,10.20
2018-03-16T19:34:29.498Z,10.10
2018-03-16T19:36:56.859Z,9.90
2018-03-16T19:39:27.239Z,10.00
2018-03-16T19:41:54.313Z,10.00
2018-03-16T19:44:21.329Z,10.10
2018-03-16T19:46:48.411Z,9.90
2018-03-16T19:49:15.435Z,9.80
2018-03-16T19:51:43.302Z,9.70
2018-03-16T19:54:10.405Z,9.60
2018-03-16T19:56:38.321Z,9.50
2018-03-16T19:59:05.340Z,9.40
2018-03-16T20:01:33.411Z,9.40
2018-03-16T20:04:00.426Z,9.50
2018-03-16T20:06:27.546Z,9.40
2018-03-16T20:08:54.581Z,9.50
2018-03-16T20:11:21.600Z,9.50
2018-03-16T20:13:48.627Z,9.30
2018-03-16T20:16:15.684Z,9.20
2018-03-16T20:21:15.528Z,9.20
2018-03-16T20:23:42.792Z,9.20
2018-03-16T20:26:09.827Z,8.80
2018-03-16T20:28:36.899Z,8.80
2018-03-16T20:33:43.510Z,8.60
2018-03-16T20:36:10.522Z,8.60
2018-03-16T20:38:37.538Z,8.70
2018-03-16T20:41:04.607Z,8.60
2018-03-16T20:43:31.614Z,8.60
2018-03-16T20:45:59.281Z,8.60
2018-03-16T20:48:26.293Z,8.60
2018-03-16T20:50:53.307Z,8.70
2018-03-16T20:53:20.334Z,8.70
2018-03-16T20:55:47.405Z,8.80
2018-03-16T20:58:14.560Z,8.90
2018-03-16T21:00:41.533Z,8.80
2018-03-16T21:03:08.952Z,8.80
2018-03-16T21:05:35.967Z,8.70
2018-03-16T21:08:03.463Z,8.60
2018-03-16T21:10:30.474Z,8.40
2018-03-16T21:12:57.503Z,8.30
2018-03-16T21:15:24.510Z,8.30
2018-03-16T21:17:51.585Z,8.10
2018-03-16T21:20:18.761Z,8.00
2018-03-16T21:22:45.839Z,7.80
2018-03-16T21:25:12.902Z,7.70
2018-03-16T21:27:40.142Z,7.60
2018-03-16T21:32:45.390Z,7.30
2018-03-16T21:35:12.430Z,7.50
2018-03-16T21:37:39.457Z,7.50
2018-03-16T21:40:06.845Z,7.20
2018-03-16T21:45:01.646Z,7.30
2018-03-16T21:47:28.672Z,7.30
2018-03-16T21:49:55.697Z,7.30
2018-03-16T21:52:22.712Z,7.30
2018-03-16T21:54:49.803Z,7.30
2018-03-16T21:57:16.815Z,7.30
2018-03-16T21:59:43.858Z,7.30
2018-03-16T22:02:11.940Z,7.30
2018-03-16T22:04:39.689Z,7.30
2018-03-16T22:07:06.735Z,7.40
2018-03-16T22:09:37.557Z,7.60
2018-03-16T22:12:04.573Z,7.60
2018-03-16T22:14:32.415Z,7.50
2018-03-16T22:17:00.055Z,7.30
2018-03-16T22:22:07.592Z,8.90
2018-03-16T22:24:34.614Z,7.60
2018-03-16T22:27:03.001Z,7.60
2018-03-16T22:29:30.083Z,7.50
2018-03-16T22:31:58.486Z,7.50
2018-03-16T22:34:25.521Z,7.60
2018-03-16T22:39:19.755Z,7.70
2018-03-16T22:41:46.788Z,7.50
2018-03-16T22:44:16.924Z,7.60
2018-03-16T22:46:43.953Z,7.60
2018-03-16T22:49:13.907Z,7.60
2018-03-16T22:51:44.086Z,7.50
2018-03-16T22:54:11.639Z,7.60
2018-03-16T22:56:39.102Z,7.50
2018-03-16T22:59:06.319Z,7.50
2018-03-16T23:01:33.364Z,7.50
2018-03-16T23:04:00.406Z,7.40
2018-03-16T23:06:27.533Z,7.40
2018-03-16T23:08:54.572Z,7.40
2018-03-16T23:11:21.639Z,7.40
2018-03-16T23:13:48.732Z,7.40
2018-03-16T23:16:16.043Z,7.30
2018-03-16T23:18:43.097Z,7.30
2018-03-16T23:23:37.357Z,7.30
2018-03-16T23:26:04.384Z,7.20
2018-03-16T23:28:31.485Z,7.20
2018-03-16T23:30:58.510Z,7.10
2018-03-16T23:33:25.536Z,6.90
2018-03-16T23:35:52.612Z,6.70
2018-03-16T23:38:19.636Z,6.60
2018-03-16T23:40:47.154Z,6.50
2018-03-16T23:45:53.214Z,6.70
2018-03-16T23:48:20.232Z,6.70
2018-03-16T23:50:47.578Z,6.80
2018-03-16T23:53:14.900Z,6.80
2018-03-16T23:55:41.974Z,6.60
2018-03-16T23:58:09.839Z,6.70
